Time;durP1;ratioP1;P1;durP2;ratioP2;P2;SDS_P1;SDS_P2;PMS_P1;PMS_P2;Temp;Humidity;BMP_temperature;BMP_pressure;BME280_temperature;BME280_humidity;BME280_pressure;Samples;Min_cycle;Max_cycle;Signal;HPM_P1;HPM_P2
2023/08/25 00:01:34;;;;;;;18.13;14.00;;;24.80;99.90;;;;;;4815184;29;20560;-80
2023/08/25 00:04:00;;;;;;;16.20;14.53;;;24.80;99.90;;;;;;4814978;29;20334;-80
2023/08/25 00:06:25;;;;;;;16.97;14.33;;;24.70;99.90;;;;;;4816659;29;20220;-80
2023/08/25 00:08:51;;;;;;;16.53;13.33;;;24.70;99.90;;;;;;4816503;29;20192;-80
2023/08/25 00:11:17;;;;;;;15.77;14.17;;;24.70;99.90;;;;;;4815186;29;20282;-80
2023/08/25 00:13:42;;;;;;;17.03;15.33;;;24.70;99.90;;;;;;4816267;29;20192;-84
2023/08/25 00:16:09;;;;;;;16.67;14.87;;;24.70;99.90;;;;;;4815243;29;20212;-80
2023/08/25 00:18:35;;;;;;;17.57;14.10;;;24.60;99.90;;;;;;4814871;29;20195;-80
2023/08/25 00:21:00;;;;;;;22.20;15.33;;;24.60;99.90;;;;;;4814791;29;20548;-81
2023/08/25 00:23:26;;;;;;;16.57;14.87;;;24.60;99.90;;;;;;4816717;29;20193;-80
2023/08/25 00:25:53;;;;;;;17.53;15.60;;;24.60;99.90;;;;;;4816760;29;20287;-84
2023/08/25 00:28:19;;;;;;;16.07;14.57;;;24.50;99.90;;;;;;4815065;29;20197;-85
2023/08/25 00:30:45;;;;;;;18.87;14.70;;;24.40;99.90;;;;;;4818218;29;20445;-82
2023/08/25 00:33:10;;;;;;;18.43;16.13;;;24.40;99.90;;;;;;4817863;29;20806;-85
2023/08/25 00:35:36;;;;;;;16.63;15.13;;;24.30;99.90;;;;;;4819579;29;20195;-80
2023/08/25 00:38:02;;;;;;;17.40;14.90;;;24.30;99.90;;;;;;4818980;29;20195;-80
2023/08/25 00:40:33;;;;;;;17.63;14.37;;;24.30;99.90;;;;;;4817215;29;20438;-85
2023/08/25 00:42:59;;;;;;;16.83;14.50;;;24.30;99.90;;;;;;4818917;29;20199;-84
2023/08/25 00:45:24;;;;;;;17.03;15.20;;;24.30;99.90;;;;;;4819443;29;21009;-80
2023/08/25 00:47:50;;;;;;;18.97;15.03;;;24.20;99.90;;;;;;4817718;29;20599;-84
2023/08/25 00:50:16;;;;;;;18.63;14.37;;;24.20;99.90;;;;;;4818120;29;20461;-81
2023/08/25 00:52:42;;;;;;;15.63;14.20;;;24.20;99.90;;;;;;4819089;29;20196;-80
2023/08/25 00:55:08;;;;;;;16.93;13.83;;;24.20;99.90;;;;;;4819031;29;21041;-84
2023/08/25 00:57:35;;;;;;;15.30;13.83;;;24.10;99.90;;;;;;4817564;29;20465;-80
2023/08/25 01:00:01;;;;;;;15.80;14.27;;;24.10;99.90;;;;;;4817695;29;20466;-80
2023/08/25 01:02:27;;;;;;;15.87;14.30;;;24.00;99.90;;;;;;4818791;29;20467;-80
2023/08/25 01:04:52;;;;;;;18.00;15.10;;;24.00;99.90;;;;;;4819085;29;21009;-85
2023/08/25 01:07:18;;;;;;;16.50;14.90;;;24.00;99.90;;;;;;4818978;29;20442;-84
2023/08/25 01:09:44;;;;;;;16.70;14.90;;;24.00;99.90;;;;;;4819003;29;20550;-84
2023/08/25 01:12:27;;;;;;;16.70;14.93;;;24.00;99.90;;;;;;4817520;29;20183;-84
2023/08/25 01:15:17;;;;;;;16.87;15.07;;;24.00;99.90;;;;;;4817693;29;20703;-80
2023/08/25 01:17:50;;;;;;;16.83;15.23;;;23.90;99.90;;;;;;4818530;29;20438;-80
2023/08/25 01:20:17;;;;;;;17.20;15.40;;;23.80;99.90;;;;;;4817342;29;20450;-84
2023/08/25 01:23:01;;;;;;;17.23;14.37;;;23.80;99.90;;;;;;4818460;29;20954;-85
2023/08/25 01:25:28;;;;;;;16.90;14.53;;;23.80;99.90;;;;;;4819044;29;20704;-80
2023/08/25 01:27:58;;;;;;;17.03;15.33;;;23.80;99.90;;;;;;4817072;29;20443;-84
2023/08/25 01:30:30;;;;;;;16.40;14.80;;;23.80;99.90;;;;;;4817403;29;20953;-85
2023/08/25 01:32:57;;;;;;;16.80;14.40;;;23.70;99.90;;;;;;4818365;29;20450;-80
2023/08/25 01:35:40;;;;;;;15.60;13.93;;;23.60;99.90;;;;;;4817080;29;20752;-85
2023/08/25 01:38:26;;;;;;;16.43;14.50;;;23.60;99.90;;;;;;4816939;29;20865;-80
2023/08/25 01:41:01;;;;;;;15.50;13.90;;;23.60;99.90;;;;;;4816432;29;20845;-84
2023/08/25 01:43:32;;;;;;;15.23;13.80;;;23.60;99.90;;;;;;4818114;29;20413;-80
2023/08/25 01:45:59;;;;;;;18.67;14.30;;;23.60;99.90;;;;;;4817275;29;20954;-80
2023/08/25 01:48:26;;;;;;;16.60;14.73;;;23.70;99.90;;;;;;4818448;29;21085;-81
2023/08/25 01:50:52;;;;;;;16.13;14.30;;;23.70;99.90;;;;;;4818625;29;20445;-84
2023/08/25 01:53:19;;;;;;;17.70;15.60;;;23.60;99.90;;;;;;4818423;29;20441;-80
2023/08/25 01:55:44;;;;;;;15.73;14.30;;;23.60;99.90;;;;;;4816759;29;20475;-80
2023/08/25 01:58:13;;;;;;;16.73;14.93;;;23.60;99.90;;;;;;4818398;29;20444;-80
2023/08/25 02:00:39;;;;;;;17.90;15.30;;;23.60;99.90;;;;;;4816890;29;20206;-80
2023/08/25 02:03:05;;;;;;;20.10;14.70;;;23.60;99.90;;;;;;4816311;29;20969;-81
2023/08/25 02:05:30;;;;;;;16.67;14.93;;;23.50;99.90;;;;;;4816541;29;20211;-85
2023/08/25 02:07:56;;;;;;;18.43;14.93;;;23.50;99.90;;;;;;4816433;29;20198;-80
2023/08/25 02:10:22;;;;;;;14.90;13.50;;;23.50;99.90;;;;;;4816839;29;20775;-80
2023/08/25 02:12:47;;;;;;;16.57;14.97;;;23.50;99.90;;;;;;4817402;29;20204;-84
2023/08/25 02:15:13;;;;;;;18.23;16.53;;;23.40;99.90;;;;;;4816733;29;20299;-84
2023/08/25 02:17:40;;;;;;;18.43;14.03;;;23.40;99.90;;;;;;4817748;29;20269;-84
2023/08/25 02:20:07;;;;;;;16.43;14.83;;;23.40;99.90;;;;;;4816305;29;20348;-80
2023/08/25 02:22:33;;;;;;;17.83;15.27;;;23.30;99.90;;;;;;4816230;29;20857;-84
2023/08/25 02:24:59;;;;;;;16.13;14.50;;;23.30;99.90;;;;;;4816475;29;20448;-80
2023/08/25 02:27:24;;;;;;;16.93;15.00;;;23.30;99.90;;;;;;4816444;29;20187;-83
2023/08/25 02:29:52;;;;;;;16.77;15.10;;;23.30;99.90;;;;;;4816740;29;20461;-80
2023/08/25 02:32:17;;;;;;;17.10;15.37;;;23.30;99.90;;;;;;4816180;29;20682;-85
2023/08/25 02:34:43;;;;;;;16.67;15.00;;;23.20;99.90;;;;;;4817854;29;20508;-80
2023/08/25 02:37:08;;;;;;;18.07;16.17;;;23.20;99.90;;;;;;4816145;29;20180;-80
2023/08/25 02:39:34;;;;;;;18.97;15.80;;;23.20;99.90;;;;;;4817883;29;20262;-85
2023/08/25 02:42:00;;;;;;;19.23;16.10;;;23.20;99.90;;;;;;4814750;29;20226;-84
2023/08/25 02:44:26;;;;;;;20.53;15.90;;;23.10;99.90;;;;;;4817468;29;20182;-80
2023/08/25 02:46:51;;;;;;;18.67;16.37;;;23.10;99.90;;;;;;4816119;29;20426;-80
2023/08/25 02:49:17;;;;;;;18.60;16.80;;;23.20;99.90;;;;;;4817568;29;20195;-80
2023/08/25 02:51:43;;;;;;;17.63;15.83;;;23.20;99.90;;;;;;4815770;29;20185;-80
2023/08/25 02:54:08;;;;;;;16.77;15.07;;;23.10;99.90;;;;;;4815911;29;20192;-80
2023/08/25 02:56:34;;;;;;;18.23;16.33;;;23.20;99.90;;;;;;4817057;29;20614;-80
2023/08/25 02:59:00;;;;;;;18.10;15.10;;;23.20;99.90;;;;;;4816080;29;20202;-84
2023/08/25 03:01:26;;;;;;;19.10;17.20;;;23.20;99.90;;;;;;4817594;29;20773;-81
2023/08/25 03:03:52;;;;;;;18.00;16.00;;;23.20;99.90;;;;;;4816904;29;20702;-80
2023/08/25 03:06:17;;;;;;;20.30;15.87;;;23.20;99.90;;;;;;4815958;29;20441;-84
2023/08/25 03:08:45;;;;;;;16.93;15.03;;;23.20;99.90;;;;;;4815870;29;20765;-84
2023/08/25 03:11:11;;;;;;;15.93;14.37;;;23.20;99.90;;;;;;4817415;29;20198;-80
2023/08/25 03:13:36;;;;;;;16.43;14.90;;;23.10;99.90;;;;;;4815646;29;20438;-85
2023/08/25 03:16:02;;;;;;;16.27;14.53;;;23.10;99.90;;;;;;4816071;29;20469;-84
2023/08/25 03:18:28;;;;;;;18.20;14.50;;;23.10;99.90;;;;;;4815751;29;20191;-80
2023/08/25 03:20:54;;;;;;;16.73;15.10;;;23.10;99.90;;;;;;4815379;29;20628;-84
2023/08/25 03:23:20;;;;;;;17.27;15.47;;;23.00;99.90;;;;;;4816868;29;20433;-81
2023/08/25 03:25:46;;;;;;;16.73;15.03;;;23.00;99.90;;;;;;4815573;29;20540;-84
2023/08/25 03:28:12;;;;;;;17.90;16.30;;;22.90;99.90;;;;;;4816933;29;20437;-85
2023/08/25 03:30:39;;;;;;;17.27;15.67;;;22.90;99.90;;;;;;4817177;29;20203;-86
2023/08/25 03:33:05;;;;;;;17.10;15.40;;;22.90;99.90;;;;;;4815968;29;20457;-85
2023/08/25 03:35:35;;;;;;;17.77;16.07;;;22.80;99.90;;;;;;4815903;29;20441;-82
2023/08/25 03:38:01;;;;;;;17.53;15.73;;;22.80;99.90;;;;;;4814204;29;20977;-81
2023/08/25 03:40:27;;;;;;;17.23;15.43;;;22.70;99.90;;;;;;4814334;29;21031;-81
2023/08/25 03:42:54;;;;;;;17.40;15.50;;;22.70;99.90;;;;;;4814027;29;20517;-81
2023/08/25 03:45:20;;;;;;;18.50;16.50;;;22.70;99.90;;;;;;4816741;29;20847;-81
2023/08/25 03:47:45;;;;;;;18.70;16.90;;;22.60;99.90;;;;;;4815124;29;20533;-80
2023/08/25 03:50:11;;;;;;;18.60;15.87;;;22.50;99.90;;;;;;4815765;29;20228;-85
2023/08/25 03:52:37;;;;;;;20.60;16.37;;;22.50;99.90;;;;;;4816249;29;20235;-86
2023/08/25 03:55:04;;;;;;;17.70;15.80;;;22.40;99.90;;;;;;4814598;29;20466;-79
2023/08/25 03:57:32;;;;;;;19.30;17.10;;;22.40;99.90;;;;;;4814614;29;20182;-85
2023/08/25 03:59:58;;;;;;;18.87;16.93;;;22.40;99.90;;;;;;4816328;29;20548;-85
2023/08/25 04:02:24;;;;;;;20.17;18.07;;;22.40;99.90;;;;;;4816399;29;20569;-84
2023/08/25 04:04:49;;;;;;;22.87;20.30;;;22.30;99.90;;;;;;4818289;29;20224;-81
2023/08/25 04:07:15;;;;;;;53.47;36.67;;;22.30;99.90;;;;;;4818487;29;20254;-84
2023/08/25 04:09:41;;;;;;;35.60;26.47;;;22.30;99.90;;;;;;4819985;29;20480;-81
2023/08/25 04:12:07;;;;;;;41.67;28.07;;;22.30;99.90;;;;;;4833189;29;20186;-85
2023/08/25 04:14:34;;;;;;;41.87;27.40;;;22.40;99.90;;;;;;4833462;29;20421;-81
2023/08/25 04:17:00;;;;;;;29.23;22.80;;;22.50;99.90;;;;;;4833478;29;20441;-85
2023/08/25 04:19:25;;;;;;;30.50;22.33;;;22.50;99.90;;;;;;4832447;29;21251;-85
2023/08/25 04:21:51;;;;;;;24.03;20.00;;;22.50;99.90;;;;;;4817610;29;20863;-85
2023/08/25 04:24:17;;;;;;;22.27;18.07;;;22.60;99.90;;;;;;4818459;29;20178;-81
2023/08/25 04:26:43;;;;;;;21.57;17.87;;;22.70;99.90;;;;;;4831484;29;20672;-81
2023/08/25 04:29:09;;;;;;;21.47;17.87;;;22.80;99.90;;;;;;4831920;29;20517;-81
2023/08/25 04:31:35;;;;;;;20.67;17.53;;;22.90;99.90;;;;;;4832014;29;21017;-80
2023/08/25 04:34:01;;;;;;;22.70;17.60;;;22.90;99.90;;;;;;4831535;29;20647;-85
2023/08/25 04:36:27;;;;;;;18.50;16.30;;;22.90;99.90;;;;;;4819608;29;20839;-81
2023/08/25 04:38:53;;;;;;;18.53;16.63;;;22.90;99.90;;;;;;4832818;29;20195;-85
2023/08/25 04:41:19;;;;;;;22.83;16.53;;;22.90;99.90;;;;;;4819422;29;20439;-86
2023/08/25 04:43:45;;;;;;;19.37;17.37;;;23.00;99.90;;;;;;4814800;29;20190;-80
2023/08/25 04:46:12;;;;;;;22.77;20.37;;;23.10;99.90;;;;;;4817292;29;20502;-84
2023/08/25 04:48:39;;;;;;;21.57;17.30;;;23.10;99.90;;;;;;4817714;29;20194;-85
2023/08/25 04:51:04;;;;;;;22.00;17.93;;;23.20;99.90;;;;;;4817553;29;20542;-81
2023/08/25 04:53:30;;;;;;;19.53;17.57;;;23.20;99.90;;;;;;4830933;29;20502;-80
2023/08/25 04:55:56;;;;;;;18.53;15.63;;;23.20;99.90;;;;;;4831014;29;20242;-81
2023/08/25 04:58:21;;;;;;;18.63;16.60;;;23.10;99.90;;;;;;4818431;29;20261;-80
2023/08/25 05:00:50;;;;;;;18.47;16.60;;;23.20;99.90;;;;;;4832421;29;20687;-81
2023/08/25 05:03:16;;;;;;;17.53;15.63;;;23.30;99.90;;;;;;4816061;29;20748;-81
2023/08/25 05:05:42;;;;;;;18.07;16.27;;;23.40;99.90;;;;;;4818627;29;20461;-81
2023/08/25 05:08:08;;;;;;;18.57;16.70;;;23.40;99.90;;;;;;4816700;29;20504;-84
2023/08/25 05:10:34;;;;;;;17.93;16.07;;;23.50;99.90;;;;;;4832657;29;20463;-85
2023/08/25 05:13:00;;;;;;;19.97;17.90;;;23.50;99.90;;;;;;4816620;29;20188;-80
2023/08/25 05:15:25;;;;;;;23.13;17.27;;;23.60;99.90;;;;;;4816192;29;20463;-85
2023/08/25 05:17:51;;;;;;;19.23;17.43;;;23.70;99.90;;;;;;4816941;29;20188;-80
2023/08/25 05:20:23;;;;;;;19.90;17.87;;;23.70;99.90;;;;;;4832435;29;20214;-81
2023/08/25 05:22:50;;;;;;;23.97;18.33;;;23.80;99.90;;;;;;4829953;29;20219;-81
2023/08/25 05:25:23;;;;;;;23.10;20.27;;;23.90;99.90;;;;;;4831396;29;20474;-84
2023/08/25 05:27:49;;;;;;;28.40;24.83;;;24.00;99.90;;;;;;4816165;29;20566;-80
2023/08/25 05:30:14;;;;;;;25.50;22.37;;;24.00;99.90;;;;;;4816785;29;21074;-84
2023/08/25 05:32:40;;;;;;;24.83;22.27;;;24.10;99.90;;;;;;4815160;29;20459;-85
2023/08/25 05:35:07;;;;;;;20.17;18.07;;;24.20;99.90;;;;;;4831015;29;20278;-80
2023/08/25 05:37:34;;;;;;;20.20;18.07;;;24.20;99.90;;;;;;4830708;29;20185;-81
2023/08/25 05:39:59;;;;;;;20.37;18.13;;;24.20;99.90;;;;;;4831305;29;20542;-84
2023/08/25 05:42:27;;;;;;;22.00;18.30;;;24.20;99.90;;;;;;4816144;29;20477;-80
2023/08/25 05:44:54;;;;;;;19.23;17.33;;;24.30;99.90;;;;;;4816616;29;20476;-80
2023/08/25 05:47:20;;;;;;;18.43;16.37;;;24.30;99.90;;;;;;4817298;29;20425;-85
2023/08/25 05:49:45;;;;;;;20.83;17.30;;;24.50;99.90;;;;;;4817754;29;21057;-85
2023/08/25 05:52:11;;;;;;;20.40;16.43;;;24.60;99.90;;;;;;4832069;29;20258;-80
2023/08/25 05:54:37;;;;;;;20.97;15.87;;;24.70;99.90;;;;;;4816325;29;20557;-80
2023/08/25 05:57:03;;;;;;;20.77;17.13;;;24.70;99.90;;;;;;4831134;29;20212;-80
2023/08/25 05:59:32;;;;;;;20.90;18.57;;;24.70;99.90;;;;;;4817746;29;20177;-80
2023/08/25 06:01:58;;;;;;;18.83;17.03;;;24.80;99.90;;;;;;4823456;29;20705;-80
2023/08/25 06:04:23;;;;;;;18.47;16.30;;;24.80;99.90;;;;;;4796969;29;20450;-84
2023/08/25 06:06:49;;;;;;;19.37;17.47;;;24.80;99.90;;;;;;4799038;29;20175;-79
2023/08/25 06:09:17;;;;;;;19.50;17.43;;;24.90;99.90;;;;;;4806532;29;20199;-83
2023/08/25 06:11:44;;;;;;;18.10;16.20;;;24.90;99.90;;;;;;4804588;29;20273;-84
2023/08/25 06:14:09;;;;;;;24.73;18.70;;;24.90;99.90;;;;;;4806744;29;20413;-79
2023/08/25 06:16:39;;;;;;;24.53;21.50;;;25.00;99.90;;;;;;4805674;29;20486;-80
2023/08/25 06:19:05;;;;;;;21.90;19.37;;;25.10;99.90;;;;;;4802265;29;20434;-84
2023/08/25 06:21:30;;;;;;;21.93;19.70;;;25.20;99.90;;;;;;4804066;29;20484;-85
2023/08/25 06:23:56;;;;;;;19.77;17.67;;;25.20;99.90;;;;;;4802126;29;21025;-80
2023/08/25 06:26:22;;;;;;;18.50;15.93;;;25.30;99.90;;;;;;4804510;29;20202;-84
2023/08/25 06:28:49;;;;;;;15.70;14.10;;;25.40;99.90;;;;;;4803885;29;20799;-80
2023/08/25 06:31:16;;;;;;;26.13;15.30;;;25.50;99.90;;;;;;4804234;29;20677;-80
2023/08/25 06:33:41;;;;;;;22.37;15.50;;;25.60;99.90;;;;;;4805795;29;20509;-84
2023/08/25 06:36:07;;;;;;;16.07;14.37;;;25.60;99.90;;;;;;4796148;29;20548;-84
2023/08/25 06:38:33;;;;;;;16.17;14.00;;;25.70;99.90;;;;;;4807818;29;20197;-80
2023/08/25 06:40:59;;;;;;;16.57;14.30;;;25.90;99.90;;;;;;4812381;29;21102;-79
2023/08/25 06:43:24;;;;;;;15.10;13.60;;;26.00;99.90;;;;;;4810240;29;20823;-84
2023/08/25 06:45:50;;;;;;;23.33;17.40;;;26.10;99.90;;;;;;4816581;29;20222;-84
2023/08/25 06:48:16;;;;;;;16.63;14.10;;;26.20;99.90;;;;;;4815214;29;20225;-84
2023/08/25 06:50:41;;;;;;;15.03;13.40;;;26.30;99.90;;;;;;4816769;29;20270;-80
2023/08/25 06:53:07;;;;;;;14.77;13.20;;;26.50;99.90;;;;;;4815384;29;20615;-83
2023/08/25 06:55:36;;;;;;;14.43;11.93;;;26.60;99.90;;;;;;4801733;29;20258;-84
2023/08/25 06:58:02;;;;;;;14.43;13.00;;;26.60;99.90;;;;;;4795919;29;20410;-83
2023/08/25 07:00:29;;;;;;;13.80;12.40;;;26.80;99.90;;;;;;4795219;29;20518;-79
2023/08/25 07:02:54;;;;;;;16.27;14.10;;;26.80;99.90;;;;;;4794674;29;20901;-79
2023/08/25 07:05:20;;;;;;;15.50;14.00;;;26.90;99.90;;;;;;4795163;29;20537;-84
2023/08/25 07:07:47;;;;;;;18.20;13.80;;;27.00;99.90;;;;;;4792073;29;20575;-79
2023/08/25 07:10:13;;;;;;;15.00;12.70;;;27.10;99.90;;;;;;4794389;29;20230;-84
2023/08/25 07:12:40;;;;;;;18.53;13.60;;;27.30;99.90;;;;;;4793225;29;20484;-83
2023/08/25 07:15:07;;;;;;;14.97;12.33;;;27.40;99.90;;;;;;4799932;29;20214;-79
2023/08/25 07:17:34;;;;;;;14.53;13.07;;;27.50;99.90;;;;;;4813586;29;20417;-84
2023/08/25 07:19:59;;;;;;;17.90;12.60;;;27.70;99.90;;;;;;4813154;29;20468;-84
2023/08/25 07:22:25;;;;;;;14.20;12.90;;;27.80;99.90;;;;;;4812274;29;20481;-79
2023/08/25 07:24:53;;;;;;;17.73;13.00;;;27.90;99.90;;;;;;4813424;29;20217;-80
2023/08/25 07:27:20;;;;;;;13.10;11.90;;;28.00;99.90;;;;;;4823470;29;20287;-84
2023/08/25 07:29:45;;;;;;;11.90;10.73;;;28.20;99.90;;;;;;4795339;29;20463;-84
2023/08/25 07:32:11;;;;;;;12.27;10.87;;;28.30;99.90;;;;;;4792434;29;20890;-84
2023/08/25 07:34:37;;;;;;;12.43;10.60;;;28.40;99.90;;;;;;4792514;29;20587;-84
2023/08/25 07:37:03;;;;;;;13.17;11.87;;;28.60;99.90;;;;;;4792866;29;20188;-79
2023/08/25 07:39:29;;;;;;;22.10;12.23;;;28.70;99.90;;;;;;4797525;29;20221;-81
2023/08/25 07:41:55;;;;;;;12.03;10.73;;;28.80;99.90;;;;;;4805959;29;20214;-82
2023/08/25 07:44:21;;;;;;;12.20;10.47;;;28.90;99.90;;;;;;4815357;29;20443;-83
2023/08/25 07:46:47;;;;;;;14.80;13.40;;;29.00;99.90;;;;;;4821631;29;20477;-86
2023/08/25 07:49:13;;;;;;;12.83;11.50;;;29.00;99.90;;;;;;4817649;29;20881;-84
2023/08/25 07:51:38;;;;;;;11.20;10.10;;;29.10;99.90;;;;;;4818790;29;20218;-82
2023/08/25 07:54:05;;;;;;;14.30;10.13;;;29.20;99.90;;;;;;4817602;29;20634;-85
2023/08/25 07:56:31;;;;;;;11.20;10.07;;;29.20;99.90;;;;;;4833059;29;20321;-86
2023/08/25 07:58:57;;;;;;;11.90;10.60;;;29.30;99.90;;;;;;4817649;29;20501;-86
2023/08/25 08:01:22;;;;;;;11.03;9.93;;;29.30;99.90;;;;;;4817571;29;20489;-86
2023/08/25 08:03:48;;;;;;;35.90;31.97;;;29.40;99.90;;;;;;4817696;29;20597;-82
2023/08/25 08:06:14;;;;;;;29.57;22.90;;;29.50;99.90;;;;;;4831783;29;20213;-85
2023/08/25 08:08:40;;;;;;;17.43;11.10;;;29.60;99.90;;;;;;4815683;29;20233;-85
2023/08/25 08:11:05;;;;;;;16.07;11.27;;;29.70;99.90;;;;;;4831292;29;20219;-82
2023/08/25 08:13:31;;;;;;;10.60;9.60;;;29.90;99.90;;;;;;4814029;29;20418;-82
2023/08/25 08:15:57;;;;;;;10.50;9.43;;;29.90;99.90;;;;;;4831944;29;20728;-80
2023/08/25 08:18:22;;;;;;;10.50;9.37;;;29.90;99.90;;;;;;4817829;29;20741;-81
2023/08/25 08:20:48;;;;;;;12.73;10.37;;;30.00;99.90;;;;;;4817370;29;20230;-83
2023/08/25 08:23:15;;;;;;;10.50;9.40;;;30.10;99.90;;;;;;4828863;29;20809;-85
2023/08/25 08:25:40;;;;;;;9.73;8.73;;;30.10;99.90;;;;;;4814712;29;20712;-86
2023/08/25 08:28:08;;;;;;;11.30;9.37;;;30.10;99.90;;;;;;4815037;29;20581;-82
2023/08/25 08:30:34;;;;;;;74.63;66.90;;;30.20;99.90;;;;;;4810050;29;20221;-82
2023/08/25 08:33:00;;;;;;;32.53;27.27;;;30.10;99.90;;;;;;4807150;29;20936;-82
2023/08/25 08:35:26;;;;;;;13.37;9.70;;;30.10;99.90;;;;;;4814604;29;20464;-85
2023/08/25 08:37:51;;;;;;;11.10;10.00;;;30.30;99.90;;;;;;4810646;29;20438;-85
2023/08/25 08:40:17;;;;;;;10.00;9.03;;;30.50;99.90;;;;;;4795515;29;20217;-83
2023/08/25 08:42:45;;;;;;;11.17;10.07;;;30.60;99.90;;;;;;4806729;29;20269;-84
2023/08/25 08:45:11;;;;;;;12.90;8.93;;;30.70;99.90;;;;;;4808846;29;20851;-82
2023/08/25 08:47:37;;;;;;;10.47;9.00;;;30.80;99.90;;;;;;4802969;29;20433;-82
2023/08/25 08:50:07;;;;;;;9.27;8.37;;;31.00;99.90;;;;;;4820091;29;20205;-84
2023/08/25 08:52:32;;;;;;;10.50;8.87;;;31.00;99.90;;;;;;4833582;29;21022;-87
2023/08/25 08:54:59;;;;;;;10.03;9.03;;;31.10;99.90;;;;;;4839488;29;20534;-86
2023/08/25 08:57:28;;;;;;;9.73;8.80;;;31.20;99.90;;;;;;4814644;29;20186;-83
2023/08/25 09:00:03;;;;;;;14.80;9.00;;;31.30;99.90;;;;;;4827545;29;20587;-86
2023/08/25 09:02:31;;;;;;;11.73;10.53;;;31.40;99.90;;;;;;4816566;29;20473;-83
2023/08/25 09:04:58;;;;;;;9.10;8.20;;;31.50;99.90;;;;;;4813308;29;20533;-82
2023/08/25 09:07:27;;;;;;;11.50;9.40;;;31.70;99.90;;;;;;4816173;29;20914;-86
2023/08/25 09:09:53;;;;;;;9.43;8.43;;;31.80;99.90;;;;;;4815092;29;20453;-87
2023/08/25 09:12:20;;;;;;;9.83;8.87;;;31.90;99.90;;;;;;4821767;29;20432;-84
2023/08/25 09:14:47;;;;;;;12.73;8.40;;;31.90;99.90;;;;;;4814587;29;20564;-87
2023/08/25 09:17:14;;;;;;;12.00;8.83;;;31.90;99.90;;;;;;4815284;29;20446;-86
2023/08/25 09:19:40;;;;;;;9.60;8.70;;;31.80;99.90;;;;;;4812819;29;20476;-83
2023/08/25 09:22:11;;;;;;;10.50;8.40;;;32.00;99.90;;;;;;4816334;29;20626;-87
2023/08/25 09:24:37;;;;;;;9.07;8.27;;;32.10;99.90;;;;;;4812174;29;20551;-86
2023/08/25 09:27:03;;;;;;;10.97;9.33;;;32.10;99.90;;;;;;4813918;29;20968;-83
2023/08/25 09:29:42;;;;;;;11.90;8.27;;;32.20;99.90;;;;;;4815312;29;20453;-88
2023/08/25 09:32:14;;;;;;;14.70;10.00;;;32.20;99.90;;;;;;4812969;29;20194;-86
2023/08/25 09:34:40;;;;;;;21.33;8.87;;;32.30;99.70;;;;;;4823598;29;20465;-81
2023/08/25 09:37:07;;;;;;;15.37;9.20;;;32.30;99.90;;;;;;4809667;29;20428;-82
2023/08/25 09:39:44;;;;;;;20.87;9.33;;;32.40;99.90;;;;;;4816215;29;20430;-84
2023/08/25 09:42:10;;;;;;;12.23;8.47;;;32.40;99.90;;;;;;4797867;29;20474;-83
2023/08/25 09:44:37;;;;;;;11.73;8.57;;;32.50;98.80;;;;;;4815486;29;20569;-83
2023/08/25 09:47:06;;;;;;;9.67;8.77;;;32.50;98.90;;;;;;4815341;29;20453;-84
2023/08/25 09:49:39;;;;;;;9.23;8.33;;;32.60;99.00;;;;;;4816699;29;20952;-85
2023/08/25 09:52:06;;;;;;;9.23;8.50;;;32.70;99.10;;;;;;4816027;29;20444;-85
2023/08/25 09:54:34;;;;;;;8.67;7.80;;;32.70;98.90;;;;;;4827066;29;20436;-86
2023/08/25 09:57:00;;;;;;;8.80;8.00;;;32.70;99.10;;;;;;4828219;29;20483;-85
2023/08/25 09:59:27;;;;;;;9.20;8.30;;;32.70;99.60;;;;;;4815784;29;20517;-83
2023/08/25 10:01:53;;;;;;;9.73;8.70;;;32.80;99.00;;;;;;4811832;29;21085;-82
2023/08/25 10:04:21;;;;;;;9.50;8.57;;;32.80;98.70;;;;;;4814462;29;20438;-83
2023/08/25 10:06:46;;;;;;;10.00;9.10;;;32.80;98.60;;;;;;4814245;29;20481;-82
2023/08/25 10:09:12;;;;;;;9.43;8.73;;;32.70;99.00;;;;;;4815234;29;20434;-85
2023/08/25 10:11:42;;;;;;;11.00;9.27;;;32.80;98.40;;;;;;4810550;29;20217;-83
2023/08/25 10:14:13;;;;;;;8.87;8.10;;;32.80;98.40;;;;;;4811092;29;20273;-82
2023/08/25 10:16:44;;;;;;;10.07;8.23;;;32.90;98.40;;;;;;4810182;29;20841;-85
2023/08/25 10:19:18;;;;;;;10.27;8.93;;;33.00;98.10;;;;;;4810991;29;20436;-85
2023/08/25 10:21:48;;;;;;;10.63;9.33;;;33.00;97.50;;;;;;4812749;29;21185;-85
2023/08/25 10:24:17;;;;;;;9.60;8.70;;;33.00;97.70;;;;;;4811170;29;20521;-84
2023/08/25 10:26:44;;;;;;;9.07;8.30;;;33.00;97.80;;;;;;4812413;29;20520;-82
2023/08/25 10:29:11;;;;;;;9.23;8.40;;;33.10;97.60;;;;;;4812347;29;20463;-82
2023/08/25 10:31:45;;;;;;;10.03;9.00;;;33.10;97.70;;;;;;4814771;29;21249;-82
2023/08/25 10:34:42;;;;;;;12.03;9.20;;;33.20;96.90;;;;;;4815098;29;20438;-85
2023/08/25 10:37:13;;;;;;;9.47;8.50;;;33.20;97.10;;;;;;4814233;29;20433;-82
2023/08/25 10:39:48;;;;;;;9.60;8.70;;;33.20;96.80;;;;;;4815940;29;20953;-81
2023/08/25 10:42:22;;;;;;;10.13;8.83;;;33.20;97.10;;;;;;4814904;29;20473;-82
2023/08/25 10:45:10;;;;;;;8.97;8.03;;;33.30;97.10;;;;;;4817318;29;20610;-83
2023/08/25 10:47:46;;;;;;;9.17;8.37;;;33.30;97.10;;;;;;4815939;29;20432;-83
2023/08/25 10:50:16;;;;;;;9.70;8.70;;;33.30;96.80;;;;;;4816074;29;20537;-82
2023/08/25 10:52:43;;;;;;;9.30;8.40;;;33.40;96.80;;;;;;4816815;29;20418;-83
2023/08/25 10:55:22;;;;;;;11.90;9.20;;;33.40;96.70;;;;;;4815602;29;21049;-83
2023/08/25 10:57:51;;;;;;;10.27;9.23;;;33.50;96.70;;;;;;4816002;29;20731;-82
2023/08/25 11:00:30;;;;;;;10.30;9.00;;;33.50;96.70;;;;;;4815016;29;20461;-84
2023/08/25 11:02:57;;;;;;;10.00;8.00;;;33.50;96.90;;;;;;4816485;29;20477;-85
2023/08/25 11:05:31;;;;;;;10.47;8.53;;;33.60;96.00;;;;;;4814163;29;20469;-85
2023/08/25 11:07:57;;;;;;;14.33;8.33;;;33.60;95.70;;;;;;4813977;29;20714;-85
2023/08/25 11:10:27;;;;;;;8.73;7.93;;;33.60;95.70;;;;;;4814129;29;20966;-84
2023/08/25 11:12:53;;;;;;;9.97;8.97;;;33.60;95.90;;;;;;4812997;29;20517;-84
2023/08/25 11:15:22;;;;;;;11.23;7.70;;;33.70;96.10;;;;;;4813813;29;20525;-83
2023/08/25 11:17:51;;;;;;;9.23;8.30;;;33.70;96.00;;;;;;4815115;29;20418;-83
2023/08/25 11:20:17;;;;;;;12.73;8.33;;;33.70;95.90;;;;;;4815116;29;20463;-84
2023/08/25 11:22:53;;;;;;;9.27;8.40;;;33.80;95.50;;;;;;4814863;29;20835;-83
2023/08/25 11:25:19;;;;;;;8.93;7.87;;;33.80;95.00;;;;;;4810616;29;20473;-83
2023/08/25 11:27:51;;;;;;;15.23;7.93;;;33.80;95.30;;;;;;4813908;29;20804;-83
2023/08/25 11:30:18;;;;;;;8.47;7.50;;;33.80;95.80;;;;;;4813907;29;20506;-83
2023/08/25 11:32:48;;;;;;;8.93;8.03;;;33.80;95.70;;;;;;4814022;29;20627;-83
2023/08/25 11:35:14;;;;;;;10.77;8.60;;;33.70;95.80;;;;;;4814985;29;21391;-83
2023/08/25 11:37:40;;;;;;;10.80;6.90;;;33.80;95.10;;;;;;4815713;29;20916;-83
2023/08/25 11:40:12;;;;;;;9.10;7.30;;;33.80;94.90;;;;;;4813335;29;20561;-83
2023/08/25 11:42:39;;;;;;;9.93;8.93;;;33.90;94.30;;;;;;4812964;29;20493;-84
2023/08/25 11:45:08;;;;;;;9.77;8.77;;;33.90;94.40;;;;;;4813011;29;20997;-84
2023/08/25 11:47:35;;;;;;;8.40;7.70;;;33.90;94.60;;;;;;4813538;29;20916;-83
2023/08/25 11:50:02;;;;;;;9.30;8.40;;;33.90;94.70;;;;;;4813361;29;20937;-85
2023/08/25 11:52:28;;;;;;;8.30;7.50;;;33.90;95.00;;;;;;4813493;29;20438;-84
2023/08/25 11:54:54;;;;;;;10.90;8.63;;;33.90;94.30;;;;;;4812404;29;20465;-83
2023/08/25 11:57:20;;;;;;;8.97;7.80;;;33.90;94.50;;;;;;4813535;29;20429;-85
2023/08/25 11:59:46;;;;;;;12.80;8.50;;;34.00;94.30;;;;;;4813379;29;20293;-85
2023/08/25 12:02:16;;;;;;;9.83;8.17;;;34.00;93.90;;;;;;4811091;29;20481;-84
2023/08/25 12:04:55;;;;;;;10.43;8.67;;;34.00;94.00;;;;;;4814305;29;20660;-82
2023/08/25 12:07:25;;;;;;;8.53;7.87;;;34.10;94.10;;;;;;4813182;29;20639;-83
2023/08/25 12:09:55;;;;;;;9.03;8.13;;;34.20;93.30;;;;;;4813190;29;20963;-85
2023/08/25 12:12:21;;;;;;;8.83;7.90;;;34.20;93.40;;;;;;4814514;29;20444;-83
2023/08/25 12:14:51;;;;;;;8.57;7.77;;;34.20;93.30;;;;;;4814600;29;20536;-83
2023/08/25 12:17:29;;;;;;;9.27;7.87;;;34.30;93.50;;;;;;4813274;29;20492;-83
2023/08/25 12:19:56;;;;;;;9.57;8.67;;;34.30;93.40;;;;;;4812790;29;20814;-85
2023/08/25 12:22:23;;;;;;;8.93;7.70;;;34.40;93.10;;;;;;4813039;29;20474;-85
2023/08/25 12:24:49;;;;;;;11.70;7.97;;;34.40;93.00;;;;;;4815406;29;20491;-83
2023/08/25 12:27:16;;;;;;;9.67;6.80;;;34.40;93.10;;;;;;4815259;29;20461;-83
2023/08/25 12:29:41;;;;;;;8.33;7.33;;;34.40;92.90;;;;;;4816082;29;20456;-83
2023/08/25 12:32:07;;;;;;;8.40;7.57;;;34.40;93.00;;;;;;4815760;29;20425;-83